sensor_id;sensor_type;location;lat;lon;timestamp;P1;durP1;ratioP1;P2;durP2;ratioP2
3979;SDS011;2004;52.452;13.120;2023-07-20T00:02:44;2266.67;;;999.90;;
3979;SDS011;2004;52.452;13.120;2023-07-20T00:10:35;2266.67;;;999.90;;
3979;SDS011;2004;52.452;13.120;2023-07-20T00:18:26;2266.67;;;999.90;;
3979;SDS011;2004;52.452;13.120;2023-07-20T00:26:17;2266.67;;;999.90;;
3979;SDS011;2004;52.452;13.120;2023-07-20T00:34:07;2266.67;;;999.90;;
3979;SDS011;2004;52.452;13.120;2023-07-20T00:41:58;2266.67;;;999.90;;
3979;SDS011;2004;52.452;13.120;2023-07-20T00:49:48;2266.67;;;999.90;;
3979;SDS011;2004;52.452;13.120;2023-07-20T00:57:41;2266.67;;;999.90;;
3979;SDS011;2004;52.452;13.120;2023-07-20T01:05:36;1801.53;;;733.60;;
3979;SDS011;2004;52.452;13.120;2023-07-20T01:13:32;2266.67;;;999.90;;
3979;SDS011;2004;52.452;13.120;2023-07-20T01:30:04;1087.80;;;428.43;;
3979;SDS011;2004;52.452;13.120;2023-07-20T01:38:17;2266.67;;;999.90;;
3979;SDS011;2004;52.452;13.120;2023-07-20T01:46:09;2266.67;;;999.90;;
3979;SDS011;2004;52.452;13.120;2023-07-20T01:53:59;2266.67;;;999.90;;
3979;SDS011;2004;52.452;13.120;2023-07-20T02:01:50;2266.67;;;999.90;;
3979;SDS011;2004;52.452;13.120;2023-07-20T02:09:41;2266.67;;;999.90;;
3979;SDS011;2004;52.452;13.120;2023-07-20T02:17:32;2266.67;;;999.90;;
3979;SDS011;2004;52.452;13.120;2023-07-20T02:25:22;2266.67;;;999.90;;
3979;SDS011;2004;52.452;13.120;2023-07-20T02:33:13;2266.67;;;999.90;;
3979;SDS011;2004;52.452;13.120;2023-07-20T02:41:03;2266.67;;;999.90;;
3979;SDS011;2004;52.452;13.120;2023-07-20T02:48:54;2266.67;;;999.90;;
3979;SDS011;2004;52.452;13.120;2023-07-20T02:56:44;2266.67;;;999.90;;
3979;SDS011;2004;52.452;13.120;2023-07-20T03:04:35;2266.67;;;999.90;;
3979;SDS011;2004;52.452;13.120;2023-07-20T03:12:28;2266.67;;;999.90;;
3979;SDS011;2004;52.452;13.120;2023-07-20T03:20:18;2266.67;;;999.90;;
3979;SDS011;2004;52.452;13.120;2023-07-20T03:28:09;2266.67;;;999.90;;
3979;SDS011;2004;52.452;13.120;2023-07-20T03:35:59;2266.67;;;999.90;;
3979;SDS011;2004;52.452;13.120;2023-07-20T03:43:50;2266.67;;;999.90;;
3979;SDS011;2004;52.452;13.120;2023-07-20T03:51:41;2266.67;;;999.90;;
3979;SDS011;2004;52.452;13.120;2023-07-20T03:59:31;2266.67;;;999.90;;
3979;SDS011;2004;52.452;13.120;2023-07-20T04:07:24;2266.67;;;999.90;;
3979;SDS011;2004;52.452;13.120;2023-07-20T04:15:15;2266.67;;;999.90;;
3979;SDS011;2004;52.452;13.120;2023-07-20T04:23:05;2266.67;;;999.90;;
3979;SDS011;2004;52.452;13.120;2023-07-20T04:31:08;2266.67;;;999.90;;
3979;SDS011;2004;52.452;13.120;2023-07-20T04:39:03;2266.67;;;999.90;;
3979;SDS011;2004;52.452;13.120;2023-07-20T04:46:54;2266.67;;;999.90;;
3979;SDS011;2004;52.452;13.120;2023-07-20T04:54:46;2266.67;;;999.90;;
3979;SDS011;2004;52.452;13.120;2023-07-20T05:02:36;2266.67;;;999.90;;
3979;SDS011;2004;52.452;13.120;2023-07-20T05:10:28;2266.67;;;999.90;;
3979;SDS011;2004;52.452;13.120;2023-07-20T05:18:19;2266.67;;;999.90;;
3979;SDS011;2004;52.452;13.120;2023-07-20T05:26:11;2266.67;;;999.90;;
3979;SDS011;2004;52.452;13.120;2023-07-20T05:34:02;2266.67;;;999.90;;
3979;SDS011;2004;52.452;13.120;2023-07-20T05:41:52;2266.67;;;999.90;;
3979;SDS011;2004;52.452;13.120;2023-07-20T05:49:44;2266.67;;;999.90;;
3979;SDS011;2004;52.452;13.120;2023-07-20T05:57:34;2266.67;;;999.90;;
3979;SDS011;2004;52.452;13.120;2023-07-20T06:05:25;2266.67;;;999.90;;
3979;SDS011;2004;52.452;13.120;2023-07-20T06:13:15;2266.67;;;999.90;;
3979;SDS011;2004;52.452;13.120;2023-07-20T06:21:06;2266.67;;;999.90;;
3979;SDS011;2004;52.452;13.120;2023-07-20T06:28:56;2266.67;;;999.90;;
3979;SDS011;2004;52.452;13.120;2023-07-20T06:36:47;2266.67;;;999.90;;
3979;SDS011;2004;52.452;13.120;2023-07-20T06:44:37;2266.67;;;999.90;;
3979;SDS011;2004;52.452;13.120;2023-07-20T06:52:28;2266.67;;;999.90;;
3979;SDS011;2004;52.452;13.120;2023-07-20T07:00:20;2266.67;;;999.90;;
3979;SDS011;2004;52.452;13.120;2023-07-20T07:08:11;2266.67;;;999.90;;
3979;SDS011;2004;52.452;13.120;2023-07-20T07:16:02;2266.67;;;999.90;;
3979;SDS011;2004;52.452;13.120;2023-07-20T07:23:53;396.17;;;335.50;;
3979;SDS011;2004;52.452;13.120;2023-07-20T07:31:47;250.60;;;102.57;;
3979;SDS011;2004;52.452;13.120;2023-07-20T07:39:37;283.50;;;169.87;;
3979;SDS011;2004;52.452;13.120;2023-07-20T07:47:28;337.03;;;263.60;;
3979;SDS011;2004;52.452;13.120;2023-07-20T07:55:18;289.10;;;173.50;;
3979;SDS011;2004;52.452;13.120;2023-07-20T08:03:10;420.33;;;376.90;;
3979;SDS011;2004;52.452;13.120;2023-07-20T08:11:01;404.23;;;360.23;;
3979;SDS011;2004;52.452;13.120;2023-07-20T08:18:51;523.20;;;473.07;;
3979;SDS011;2004;52.452;13.120;2023-07-20T08:26:42;516.87;;;467.40;;
3979;SDS011;2004;52.452;13.120;2023-07-20T08:34:33;596.47;;;543.07;;
3979;SDS011;2004;52.452;13.120;2023-07-20T08:42:25;504.17;;;453.90;;
3979;SDS011;2004;52.452;13.120;2023-07-20T08:50:17;457.07;;;411.30;;
3979;SDS011;2004;52.452;13.120;2023-07-20T08:58:08;375.00;;;302.13;;
3979;SDS011;2004;52.452;13.120;2023-07-20T09:06:03;532.30;;;482.50;;
3979;SDS011;2004;52.452;13.120;2023-07-20T09:14:03;417.23;;;373.03;;
3979;SDS011;2004;52.452;13.120;2023-07-20T09:21:57;542.87;;;492.63;;
3979;SDS011;2004;52.452;13.120;2023-07-20T09:29:48;350.93;;;272.33;;
3979;SDS011;2004;52.452;13.120;2023-07-20T09:37:39;688.97;;;629.80;;
3979;SDS011;2004;52.452;13.120;2023-07-20T09:45:30;577.87;;;525.10;;
3979;SDS011;2004;52.452;13.120;2023-07-20T09:53:24;513.70;;;463.83;;
3979;SDS011;2004;52.452;13.120;2023-07-20T10:01:17;384.90;;;343.03;;
3979;SDS011;2004;52.452;13.120;2023-07-20T10:09:11;440.53;;;393.80;;
3979;SDS011;2004;52.452;13.120;2023-07-20T10:17:04;394.30;;;351.90;;
3979;SDS011;2004;52.452;13.120;2023-07-20T10:24:56;397.93;;;355.17;;
3979;SDS011;2004;52.452;13.120;2023-07-20T10:32:50;397.63;;;354.37;;
3979;SDS011;2004;52.452;13.120;2023-07-20T10:40:42;372.60;;;331.23;;
3979;SDS011;2004;52.452;13.120;2023-07-20T10:48:32;356.23;;;288.13;;
3979;SDS011;2004;52.452;13.120;2023-07-20T10:56:24;374.60;;;332.13;;
3979;SDS011;2004;52.452;13.120;2023-07-20T11:04:19;400.70;;;357.50;;
3979;SDS011;2004;52.452;13.120;2023-07-20T11:12:27;403.50;;;360.27;;
3979;SDS011;2004;52.452;13.120;2023-07-20T11:20:17;385.53;;;343.50;;
3979;SDS011;2004;52.452;13.120;2023-07-20T11:28:09;460.53;;;413.23;;
3979;SDS011;2004;52.452;13.120;2023-07-20T11:36:02;278.23;;;165.00;;
3979;SDS011;2004;52.452;13.120;2023-07-20T11:43:53;292.27;;;187.37;;
3979;SDS011;2004;52.452;13.120;2023-07-20T11:51:44;278.93;;;165.37;;
3979;SDS011;2004;52.452;13.120;2023-07-20T11:59:36;409.97;;;365.43;;
3979;SDS011;2004;52.452;13.120;2023-07-20T12:07:27;324.17;;;233.40;;
3979;SDS011;2004;52.452;13.120;2023-07-20T12:15:22;382.97;;;323.87;;
3979;SDS011;2004;52.452;13.120;2023-07-20T12:23:16;320.33;;;250.93;;
3979;SDS011;2004;52.452;13.120;2023-07-20T12:31:07;315.27;;;231.13;;
3979;SDS011;2004;52.452;13.120;2023-07-20T12:38:59;294.87;;;199.20;;
3979;SDS011;2004;52.452;13.120;2023-07-20T12:46:51;294.63;;;190.97;;
3979;SDS011;2004;52.452;13.120;2023-07-20T12:54:43;322.43;;;244.90;;
3979;SDS011;2004;52.452;13.120;2023-07-20T13:02:33;494.07;;;444.53;;
3979;SDS011;2004;52.452;13.120;2023-07-20T13:10:26;523.60;;;471.70;;
3979;SDS011;2004;52.452;13.120;2023-07-20T13:18:16;541.53;;;488.93;;
3979;SDS011;2004;52.452;13.120;2023-07-20T13:26:08;304.00;;;217.37;;
3979;SDS011;2004;52.452;13.120;2023-07-20T13:34:00;496.37;;;445.77;;
3979;SDS011;2004;52.452;13.120;2023-07-20T13:41:50;616.80;;;561.33;;
3979;SDS011;2004;52.452;13.120;2023-07-20T13:49:41;382.73;;;321.47;;
3979;SDS011;2004;52.452;13.120;2023-07-20T13:57:31;537.50;;;485.60;;
3979;SDS011;2004;52.452;13.120;2023-07-20T14:05:22;366.67;;;297.93;;
3979;SDS011;2004;52.452;13.120;2023-07-20T14:13:12;367.10;;;307.07;;
3979;SDS011;2004;52.452;13.120;2023-07-20T14:21:03;501.97;;;451.30;;
3979;SDS011;2004;52.452;13.120;2023-07-20T14:28:55;348.90;;;266.40;;
3979;SDS011;2004;52.452;13.120;2023-07-20T14:36:45;517.37;;;466.07;;
3979;SDS011;2004;52.452;13.120;2023-07-20T14:44:36;623.47;;;567.57;;
3979;SDS011;2004;52.452;13.120;2023-07-20T14:52:27;493.10;;;443.37;;
3979;SDS011;2004;52.452;13.120;2023-07-20T15:00:18;341.57;;;284.70;;
3979;SDS011;2004;52.452;13.120;2023-07-20T15:08:09;289.10;;;215.90;;
3979;SDS011;2004;52.452;13.120;2023-07-20T15:16:00;313.20;;;234.90;;
3979;SDS011;2004;52.452;13.120;2023-07-20T15:23:50;347.10;;;295.20;;
3979;SDS011;2004;52.452;13.120;2023-07-20T15:31:41;501.80;;;454.07;;
3979;SDS011;2004;52.452;13.120;2023-07-20T15:39:31;411.90;;;369.90;;
3979;SDS011;2004;52.452;13.120;2023-07-20T15:47:22;369.83;;;328.67;;
3979;SDS011;2004;52.452;13.120;2023-07-20T15:55:12;344.47;;;283.73;;
3979;SDS011;2004;52.452;13.120;2023-07-20T16:03:03;359.30;;;319.27;;
3979;SDS011;2004;52.452;13.120;2023-07-20T16:10:56;307.10;;;223.20;;
3979;SDS011;2004;52.452;13.120;2023-07-20T16:18:50;481.40;;;435.10;;
3979;SDS011;2004;52.452;13.120;2023-07-20T16:26:41;292.63;;;196.60;;
3979;SDS011;2004;52.452;13.120;2023-07-20T16:34:33;294.30;;;223.07;;
3979;SDS011;2004;52.452;13.120;2023-07-20T16:42:24;262.67;;;153.30;;
3979;SDS011;2004;52.452;13.120;2023-07-20T16:50:14;363.53;;;321.17;;
3979;SDS011;2004;52.452;13.120;2023-07-20T16:58:05;300.27;;;217.87;;
3979;SDS011;2004;52.452;13.120;2023-07-20T17:05:56;317.57;;;246.37;;
3979;SDS011;2004;52.452;13.120;2023-07-20T17:13:48;395.87;;;352.93;;
3979;SDS011;2004;52.452;13.120;2023-07-20T17:21:39;337.20;;;278.50;;
3979;SDS011;2004;52.452;13.120;2023-07-20T17:29:29;335.60;;;275.10;;
3979;SDS011;2004;52.452;13.120;2023-07-20T17:37:20;303.27;;;218.87;;
3979;SDS011;2004;52.452;13.120;2023-07-20T17:45:11;365.67;;;318.07;;
3979;SDS011;2004;52.452;13.120;2023-07-20T17:53:01;341.23;;;283.53;;
3979;SDS011;2004;52.452;13.120;2023-07-20T18:00:52;302.47;;;239.53;;
3979;SDS011;2004;52.452;13.120;2023-07-20T18:08:43;345.23;;;295.33;;
3979;SDS011;2004;52.452;13.120;2023-07-20T18:16:34;353.87;;;315.07;;
3979;SDS011;2004;52.452;13.120;2023-07-20T18:24:24;234.00;;;125.93;;
3979;SDS011;2004;52.452;13.120;2023-07-20T18:32:16;411.67;;;368.87;;
3979;SDS011;2004;52.452;13.120;2023-07-20T18:40:06;398.97;;;357.23;;
3979;SDS011;2004;52.452;13.120;2023-07-20T18:47:57;412.87;;;370.43;;
3979;SDS011;2004;52.452;13.120;2023-07-20T18:55:49;390.00;;;348.70;;
3979;SDS011;2004;52.452;13.120;2023-07-20T19:03:40;380.43;;;339.23;;
3979;SDS011;2004;52.452;13.120;2023-07-20T19:11:31;374.37;;;334.03;;
3979;SDS011;2004;52.452;13.120;2023-07-20T19:19:21;372.80;;;332.70;;
3979;SDS011;2004;52.452;13.120;2023-07-20T19:27:13;384.10;;;341.13;;
3979;SDS011;2004;52.452;13.120;2023-07-20T19:35:06;414.20;;;370.67;;
3979;SDS011;2004;52.452;13.120;2023-07-20T19:42:57;380.93;;;339.53;;
3979;SDS011;2004;52.452;13.120;2023-07-20T19:50:50;381.17;;;321.37;;
3979;SDS011;2004;52.452;13.120;2023-07-20T19:58:40;372.83;;;331.83;;
3979;SDS011;2004;52.452;13.120;2023-07-20T20:06:32;421.13;;;376.90;;
3979;SDS011;2004;52.452;13.120;2023-07-20T20:14:23;385.63;;;343.73;;
3979;SDS011;2004;52.452;13.120;2023-07-20T20:22:14;462.23;;;414.83;;
3979;SDS011;2004;52.452;13.120;2023-07-20T20:30:08;522.00;;;472.17;;
3979;SDS011;2004;52.452;13.120;2023-07-20T20:37:59;513.40;;;464.87;;
3979;SDS011;2004;52.452;13.120;2023-07-20T20:45:50;530.10;;;480.83;;
3979;SDS011;2004;52.452;13.120;2023-07-20T20:53:41;529.17;;;479.90;;
3979;SDS011;2004;52.452;13.120;2023-07-20T21:01:31;515.23;;;466.40;;
3979;SDS011;2004;52.452;13.120;2023-07-20T21:09:21;470.80;;;424.80;;
3979;SDS011;2004;52.452;13.120;2023-07-20T21:17:12;586.63;;;532.77;;
3979;SDS011;2004;52.452;13.120;2023-07-20T21:25:04;519.50;;;470.80;;
3979;SDS011;2004;52.452;13.120;2023-07-20T21:32:55;554.17;;;503.33;;
3979;SDS011;2004;52.452;13.120;2023-07-20T21:40:46;557.97;;;505.67;;
3979;SDS011;2004;52.452;13.120;2023-07-20T21:48:37;562.53;;;510.23;;
3979;SDS011;2004;52.452;13.120;2023-07-20T21:56:28;543.37;;;493.20;;
3979;SDS011;2004;52.452;13.120;2023-07-20T22:04:18;363.67;;;323.90;;
3979;SDS011;2004;52.452;13.120;2023-07-20T22:12:09;398.40;;;356.63;;
3979;SDS011;2004;52.452;13.120;2023-07-20T22:20:00;368.80;;;328.53;;
3979;SDS011;2004;52.452;13.120;2023-07-20T22:27:52;170.30;;;9.20;;
3979;SDS011;2004;52.452;13.120;2023-07-20T22:35:43;227.57;;;99.90;;
3979;SDS011;2004;52.452;13.120;2023-07-20T22:43:33;231.00;;;102.37;;
3979;SDS011;2004;52.452;13.120;2023-07-20T22:51:24;171.47;;;24.60;;
3979;SDS011;2004;52.452;13.120;2023-07-20T22:59:14;177.23;;;16.37;;
3979;SDS011;2004;52.452;13.120;2023-07-20T23:07:05;325.83;;;266.50;;
3979;SDS011;2004;52.452;13.120;2023-07-20T23:14:55;275.07;;;180.83;;
3979;SDS011;2004;52.452;13.120;2023-07-20T23:22:46;246.47;;;131.57;;
3979;SDS011;2004;52.452;13.120;2023-07-20T23:30:44;287.07;;;187.13;;
3979;SDS011;2004;52.452;13.120;2023-07-20T23:38:38;172.40;;;17.73;;
3979;SDS011;2004;52.452;13.120;2023-07-20T23:46:34;254.63;;;145.20;;
3979;SDS011;2004;52.452;13.120;2023-07-20T23:54:25;274.10;;;173.43;;
